createdAt,value
2018-12-22T00:00:01.778Z,2.07
2018-12-22T00:05:09.084Z,8.30
2018-12-22T00:10:14.704Z,4.70
2018-12-22T00:15:19.608Z,3.83
2018-12-22T00:20:24.467Z,4.00
2018-12-22T00:25:29.964Z,5.03
2018-12-22T00:30:34.901Z,6.80
2018-12-22T00:35:39.923Z,2.97
2018-12-22T00:40:45.273Z,2.57
2018-12-22T00:45:50.261Z,1.57
2018-12-22T00:50:55.186Z,3.07
2018-12-22T00:56:00.216Z,3.27
2018-12-22T01:01:05.322Z,4.03
2018-12-22T01:06:10.465Z,3.70
2018-12-22T01:11:16.321Z,3.60
2018-12-22T01:16:21.596Z,3.53
2018-12-22T01:21:26.603Z,4.13
2018-12-22T01:26:32.011Z,5.20
2018-12-22T01:31:37.094Z,9.10
2018-12-22T01:36:41.933Z,3.17
2018-12-22T01:41:49.512Z,5.13
2018-12-22T01:46:54.447Z,8.10
2018-12-22T01:51:59.567Z,3.30
2018-12-22T01:57:04.708Z,9.20
2018-12-22T02:02:09.992Z,6.67
2018-12-22T02:07:14.806Z,6.80
2018-12-22T02:12:19.639Z,6.10
2018-12-22T02:17:24.537Z,6.07
2018-12-22T02:22:29.397Z,9.53
2018-12-22T02:27:34.244Z,6.90
2018-12-22T02:32:39.315Z,9.23
2018-12-22T02:37:44.231Z,11.43
2018-12-22T02:42:49.089Z,7.90
2018-12-22T02:47:54.206Z,9.07
2018-12-22T02:52:59.548Z,10.23
2018-12-22T02:58:04.496Z,7.20
2018-12-22T03:03:09.255Z,9.27
2018-12-22T03:08:14.085Z,7.63
2018-12-22T03:13:19.119Z,6.93
2018-12-22T03:18:23.923Z,11.73
2018-12-22T03:23:28.789Z,8.97
2018-12-22T03:28:33.878Z,11.03
2018-12-22T03:33:38.667Z,14.50
2018-12-22T03:38:43.846Z,11.60
2018-12-22T03:43:48.800Z,14.30
2018-12-22T03:48:53.593Z,8.00
2018-12-22T03:53:58.459Z,12.83
2018-12-22T03:59:03.711Z,5.60
2018-12-22T04:04:10.365Z,8.93
2018-12-22T04:09:15.674Z,12.87
2018-12-22T04:14:20.475Z,9.43
2018-12-22T04:19:25.398Z,10.47
2018-12-22T04:24:30.579Z,9.00
2018-12-22T04:29:35.434Z,10.83
2018-12-22T04:34:40.651Z,9.33
2018-12-22T04:39:45.644Z,8.03
2018-12-22T04:44:50.778Z,11.07
2018-12-22T04:49:55.990Z,17.07
2018-12-22T04:55:01.003Z,14.30
2018-12-22T05:00:07.631Z,18.60
2018-12-22T05:05:12.783Z,16.87
2018-12-22T05:10:18.248Z,14.83
2018-12-22T05:15:24.377Z,15.60
2018-12-22T05:20:29.324Z,16.50
2018-12-22T05:25:34.266Z,13.83
2018-12-22T05:30:39.226Z,9.87
2018-12-22T05:35:44.415Z,13.13
2018-12-22T05:40:49.534Z,10.87
2018-12-22T05:45:54.719Z,6.40
2018-12-22T05:51:00.816Z,13.23
2018-12-22T05:56:06.427Z,13.33
2018-12-22T06:01:11.376Z,8.50
2018-12-22T06:06:16.585Z,11.87
2018-12-22T06:11:21.397Z,11.17
2018-12-22T06:16:26.201Z,6.23
2018-12-22T06:21:30.964Z,14.63
2018-12-22T06:26:35.841Z,13.60
2018-12-22T06:31:40.646Z,13.13
2018-12-22T06:36:45.633Z,7.10
2018-12-22T06:41:50.564Z,4.50
2018-12-22T06:46:55.406Z,6.80
2018-12-22T06:52:00.241Z,8.20
2018-12-22T07:02:15.873Z,8.27
2018-12-22T07:07:21.699Z,7.93
2018-12-22T07:12:26.531Z,13.13
2018-12-22T07:17:31.512Z,5.93
2018-12-22T07:22:36.445Z,9.90
2018-12-22T07:27:41.749Z,9.00
2018-12-22T07:32:47.375Z,5.87
2018-12-22T07:37:52.134Z,12.57
2018-12-22T07:42:56.944Z,13.57
2018-12-22T07:48:03.435Z,13.13
2018-12-22T07:53:08.444Z,7.50
2018-12-22T07:58:13.400Z,9.67
2018-12-22T08:03:18.339Z,13.60
2018-12-22T08:08:23.758Z,7.10
2018-12-22T08:13:29.105Z,13.87
2018-12-22T08:18:34.031Z,6.67
2018-12-22T08:23:38.875Z,8.53
2018-12-22T08:28:43.714Z,18.47
2018-12-22T08:33:48.712Z,11.20
2018-12-22T08:38:53.765Z,7.87
2018-12-22T08:43:59.782Z,5.87
2018-12-22T08:49:05.836Z,8.23
2018-12-22T08:54:10.742Z,7.37
2018-12-22T08:59:16.570Z,12.03
2018-12-22T09:04:22.144Z,7.50
2018-12-22T09:09:27.313Z,11.33
2018-12-22T09:14:32.419Z,9.97
2018-12-22T09:19:37.271Z,5.93
2018-12-22T09:24:42.060Z,7.93
2018-12-22T09:29:47.037Z,7.07
2018-12-22T09:34:51.916Z,8.03
2018-12-22T09:39:57.036Z,13.73
2018-12-22T09:45:05.731Z,5.80
2018-12-22T09:50:13.946Z,4.40
2018-12-22T09:55:18.878Z,4.27
2018-12-22T10:00:24.336Z,3.23
2018-12-22T10:05:29.357Z,4.67
2018-12-22T10:10:34.363Z,2.53
2018-12-22T10:15:39.457Z,1.50
2018-12-22T10:20:45.086Z,3.63
2018-12-22T10:25:50.142Z,2.37
2018-12-22T10:30:55.001Z,7.90
2018-12-22T10:35:59.999Z,3.60
2018-12-22T10:41:05.479Z,7.77
2018-12-22T10:46:11.443Z,6.07
2018-12-22T10:51:24.297Z,7.37
2018-12-22T10:56:27.964Z,5.57
2018-12-22T11:04:52.156Z,5.40
2018-12-22T11:09:57.015Z,4.57
2018-12-22T11:15:02.926Z,2.73
2018-12-22T11:20:08.972Z,2.60
2018-12-22T11:25:20.041Z,4.30
2018-12-22T11:30:27.646Z,1.30
2018-12-22T11:35:32.892Z,1.90
2018-12-22T11:40:38.330Z,1.17
2018-12-22T11:45:43.194Z,1.77
2018-12-22T11:50:48.131Z,2.07
2018-12-22T11:55:53.753Z,3.63
2018-12-22T12:00:58.613Z,1.33
2018-12-22T12:06:04.328Z,1.80
2018-12-22T12:11:09.772Z,1.37
2018-12-22T12:16:40.361Z,2.90
2018-12-22T12:21:45.965Z,2.00
2018-12-22T12:26:50.882Z,4.63
2018-12-22T12:31:56.325Z,1.87
2018-12-22T12:37:02.628Z,1.53
2018-12-22T12:42:07.558Z,2.43
2018-12-22T12:47:13.558Z,3.27
2018-12-22T12:52:19.011Z,1.73
2018-12-22T12:57:24.699Z,2.10
2018-12-22T13:02:30.196Z,1.27
2018-12-22T13:07:35.717Z,1.80
2018-12-22T13:12:55.123Z,3.70
2018-12-22T13:18:00.071Z,1.63
2018-12-22T13:23:06.544Z,1.10
2018-12-22T13:28:12.303Z,2.17
2018-12-22T13:33:17.449Z,1.07
2018-12-22T13:38:22.993Z,1.57
2018-12-22T13:43:28.021Z,1.07
2018-12-22T13:48:32.894Z,1.40
2018-12-22T13:58:55.095Z,0.90
2018-12-22T14:04:00.251Z,0.80
2018-12-22T14:09:07.610Z,1.33
2018-12-22T14:14:18.284Z,1.60
2018-12-22T14:19:23.650Z,1.20
2018-12-22T14:24:35.967Z,1.83
2018-12-22T14:29:40.828Z,1.40
2018-12-22T14:34:54.962Z,1.40
2018-12-22T14:39:59.788Z,2.00
2018-12-22T14:45:06.812Z,1.50
2018-12-22T14:50:12.930Z,1.10
2018-12-22T14:55:18.159Z,1.67
2018-12-22T15:00:23.520Z,1.40
2018-12-22T15:05:30.400Z,2.40
2018-12-22T15:10:36.196Z,0.93
2018-12-22T15:15:41.109Z,1.03
2018-12-22T15:20:46.400Z,1.47
2018-12-22T15:25:51.634Z,1.30
2018-12-22T15:30:56.958Z,1.57
2018-12-22T15:36:02.381Z,1.37
2018-12-22T15:41:07.773Z,3.33
2018-12-22T15:46:13.601Z,3.30
2018-12-22T15:51:18.571Z,1.60
2018-12-22T15:56:23.648Z,1.70
2018-12-22T16:01:28.747Z,2.40
2018-12-22T16:06:34.007Z,1.90
2018-12-22T16:11:39.468Z,3.10
2018-12-22T16:16:44.525Z,2.30
2018-12-22T16:21:49.652Z,2.90
2018-12-22T16:26:54.887Z,4.40
2018-12-22T16:31:59.972Z,3.47
2018-12-22T16:37:06.836Z,4.70
2018-12-22T16:42:11.806Z,4.40
2018-12-22T16:47:17.055Z,6.30
2018-12-22T16:52:22.410Z,3.20
2018-12-22T16:57:28.587Z,5.47
2018-12-22T17:02:58.544Z,4.60
2018-12-22T17:08:05.813Z,3.50
2018-12-22T17:13:12.733Z,4.47
2018-12-22T17:18:18.352Z,3.93
2018-12-22T17:23:33.149Z,3.83
2018-12-22T17:28:38.105Z,3.43
2018-12-22T17:33:43.576Z,3.67
2018-12-22T17:38:48.603Z,3.33
2018-12-22T17:43:55.202Z,4.13
2018-12-22T17:49:00.871Z,4.73
2018-12-22T17:54:07.023Z,5.57
2018-12-22T17:59:12.992Z,4.80
2018-12-22T18:04:17.925Z,7.23
2018-12-22T18:09:23.050Z,4.40
2018-12-22T18:14:28.099Z,6.53
2018-12-22T18:19:35.488Z,4.03
2018-12-22T18:24:40.599Z,5.17
2018-12-22T18:29:45.888Z,4.67
2018-12-22T18:34:50.849Z,6.60
2018-12-22T18:39:56.090Z,4.43
2018-12-22T18:45:00.998Z,4.80
2018-12-22T18:50:12.968Z,6.50
2018-12-22T18:55:18.902Z,7.00
2018-12-22T19:00:25.014Z,2.73
2018-12-22T19:05:29.973Z,3.40
2018-12-22T19:10:39.631Z,1.63
2018-12-22T19:15:47.980Z,2.20
2018-12-22T19:20:54.820Z,3.20
2018-12-22T19:25:59.823Z,8.00
2018-12-22T19:31:06.142Z,4.37
2018-12-22T19:36:11.649Z,5.70
2018-12-22T19:41:18.714Z,4.63
2018-12-22T19:46:23.981Z,6.37
2018-12-22T19:51:29.834Z,3.53
2018-12-22T19:56:35.266Z,3.90
2018-12-22T20:01:40.211Z,6.10
2018-12-22T20:06:45.229Z,4.97
2018-12-22T20:11:50.302Z,7.30
2018-12-22T20:16:56.201Z,3.80
2018-12-22T20:22:01.441Z,7.60
2018-12-22T20:27:07.525Z,5.67
2018-12-22T20:32:13.598Z,6.00
2018-12-22T20:37:19.247Z,4.73
2018-12-22T20:42:24.925Z,5.07
2018-12-22T20:47:30.910Z,4.87
2018-12-22T20:52:37.516Z,3.10
2018-12-22T20:57:43.708Z,5.23
2018-12-22T21:02:49.159Z,5.00
2018-12-22T21:07:55.278Z,6.73
2018-12-22T21:13:01.162Z,3.80
2018-12-22T21:18:07.159Z,3.50
2018-12-22T21:23:13.170Z,4.67
2018-12-22T21:28:19.362Z,4.20
2018-12-22T21:33:25.261Z,6.00
2018-12-22T21:38:30.274Z,3.63
2018-12-22T21:43:36.085Z,4.67
2018-12-22T21:53:52.303Z,4.13
2018-12-22T21:58:57.457Z,6.00
2018-12-22T22:04:03.425Z,5.53
2018-12-22T22:09:08.624Z,3.60
2018-12-22T22:14:20.107Z,9.57
2018-12-22T22:19:25.224Z,5.43
2018-12-22T22:24:30.628Z,4.13
2018-12-22T22:29:36.197Z,3.80
2018-12-22T22:34:45.610Z,4.20
2018-12-22T22:39:48.824Z,4.43
2018-12-22T22:44:53.791Z,2.90
2018-12-22T22:49:59.472Z,5.57
2018-12-22T22:55:07.043Z,2.70
2018-12-22T23:00:42.996Z,5.13
2018-12-22T23:05:47.883Z,4.10
2018-12-22T23:10:52.899Z,5.33
2018-12-22T23:15:58.561Z,3.57
2018-12-22T23:21:04.655Z,2.30
2018-12-22T23:26:09.920Z,5.07
2018-12-22T23:31:14.820Z,11.00
2018-12-22T23:36:19.844Z,4.30
2018-12-22T23:41:25.046Z,3.57
2018-12-22T23:46:29.893Z,4.20
2018-12-22T23:57:08.246Z,2.90
